sensor_id;sensor_type;location;lat;lon;timestamp;P1;durP1;ratioP1;P2;durP2;ratioP2
59930;SDS011;45790;51.538;6.736;2023-06-14T00:00:30;13.73;;;4.68;;
59930;SDS011;45790;51.538;6.736;2023-06-14T00:02:56;9.15;;;4.57;;
59930;SDS011;45790;51.538;6.736;2023-06-14T00:05:22;7.90;;;4.00;;
59930;SDS011;45790;51.538;6.736;2023-06-14T00:07:48;8.93;;;4.32;;
59930;SDS011;45790;51.538;6.736;2023-06-14T00:10:13;8.75;;;4.53;;
59930;SDS011;45790;51.538;6.736;2023-06-14T00:12:39;7.00;;;4.40;;
59930;SDS011;45790;51.538;6.736;2023-06-14T00:15:04;8.88;;;4.28;;
59930;SDS011;45790;51.538;6.736;2023-06-14T00:17:29;6.32;;;4.35;;
59930;SDS011;45790;51.538;6.736;2023-06-14T00:19:58;9.30;;;4.28;;
59930;SDS011;45790;51.538;6.736;2023-06-14T00:22:24;6.35;;;4.43;;
59930;SDS011;45790;51.538;6.736;2023-06-14T00:24:49;9.60;;;4.43;;
59930;SDS011;45790;51.538;6.736;2023-06-14T00:27:15;7.13;;;4.53;;
59930;SDS011;45790;51.538;6.736;2023-06-14T00:29:40;8.45;;;4.13;;
59930;SDS011;45790;51.538;6.736;2023-06-14T00:32:05;7.53;;;4.13;;
59930;SDS011;45790;51.538;6.736;2023-06-14T00:34:31;8.52;;;4.18;;
59930;SDS011;45790;51.538;6.736;2023-06-14T00:36:56;7.77;;;4.50;;
59930;SDS011;45790;51.538;6.736;2023-06-14T00:39:21;7.70;;;4.23;;
59930;SDS011;45790;51.538;6.736;2023-06-14T00:41:46;12.50;;;4.30;;
59930;SDS011;45790;51.538;6.736;2023-06-14T00:44:12;7.13;;;4.20;;
59930;SDS011;45790;51.538;6.736;2023-06-14T00:46:39;7.85;;;4.47;;
59930;SDS011;45790;51.538;6.736;2023-06-14T00:49:04;7.27;;;4.63;;
59930;SDS011;45790;51.538;6.736;2023-06-14T00:51:29;7.10;;;4.03;;
59930;SDS011;45790;51.538;6.736;2023-06-14T00:53:55;6.68;;;4.35;;
59930;SDS011;45790;51.538;6.736;2023-06-14T00:56:20;8.00;;;4.13;;
59930;SDS011;45790;51.538;6.736;2023-06-14T00:58:45;7.45;;;4.28;;
59930;SDS011;45790;51.538;6.736;2023-06-14T01:01:11;7.93;;;4.00;;
59930;SDS011;45790;51.538;6.736;2023-06-14T01:03:36;8.53;;;4.10;;
59930;SDS011;45790;51.538;6.736;2023-06-14T01:06:05;7.30;;;3.63;;
59930;SDS011;45790;51.538;6.736;2023-06-14T01:09:18;8.93;;;3.80;;
59930;SDS011;45790;51.538;6.736;2023-06-14T01:11:27;5.32;;;3.78;;
59930;SDS011;45790;51.538;6.736;2023-06-14T01:13:53;10.05;;;4.57;;
59930;SDS011;45790;51.538;6.736;2023-06-14T01:16:19;6.13;;;4.13;;
59930;SDS011;45790;51.538;6.736;2023-06-14T01:18:44;9.52;;;3.55;;
59930;SDS011;45790;51.538;6.736;2023-06-14T01:21:23;8.23;;;3.63;;
59930;SDS011;45790;51.538;6.736;2023-06-14T01:23:49;7.47;;;3.60;;
59930;SDS011;45790;51.538;6.736;2023-06-14T01:26:18;6.07;;;3.50;;
59930;SDS011;45790;51.538;6.736;2023-06-14T01:28:43;5.85;;;3.78;;
59930;SDS011;45790;51.538;6.736;2023-06-14T01:31:13;8.70;;;3.80;;
59930;SDS011;45790;51.538;6.736;2023-06-14T01:33:38;5.82;;;3.58;;
59930;SDS011;45790;51.538;6.736;2023-06-14T01:36:03;7.93;;;3.63;;
59930;SDS011;45790;51.538;6.736;2023-06-14T01:38:30;7.53;;;3.72;;
59930;SDS011;45790;51.538;6.736;2023-06-14T01:40:55;5.90;;;3.70;;
59930;SDS011;45790;51.538;6.736;2023-06-14T01:43:22;6.18;;;3.83;;
59930;SDS011;45790;51.538;6.736;2023-06-14T01:45:48;6.50;;;3.65;;
59930;SDS011;45790;51.538;6.736;2023-06-14T01:48:16;6.47;;;3.63;;
59930;SDS011;45790;51.538;6.736;2023-06-14T01:50:41;7.35;;;3.42;;
59930;SDS011;45790;51.538;6.736;2023-06-14T01:53:07;7.67;;;3.57;;
59930;SDS011;45790;51.538;6.736;2023-06-14T01:55:32;6.25;;;3.17;;
59930;SDS011;45790;51.538;6.736;2023-06-14T01:58:02;6.30;;;3.60;;
59930;SDS011;45790;51.538;6.736;2023-06-14T02:00:27;6.15;;;3.45;;
59930;SDS011;45790;51.538;6.736;2023-06-14T02:02:52;10.03;;;3.73;;
59930;SDS011;45790;51.538;6.736;2023-06-14T02:05:17;6.73;;;3.40;;
59930;SDS011;45790;51.538;6.736;2023-06-14T02:07:44;9.30;;;3.67;;
59930;SDS011;45790;51.538;6.736;2023-06-14T02:10:09;4.65;;;3.40;;
59930;SDS011;45790;51.538;6.736;2023-06-14T02:12:34;6.07;;;3.55;;
59930;SDS011;45790;51.538;6.736;2023-06-14T02:15:00;6.80;;;3.37;;
59930;SDS011;45790;51.538;6.736;2023-06-14T02:17:25;7.47;;;3.53;;
59930;SDS011;45790;51.538;6.736;2023-06-14T02:19:51;7.63;;;3.05;;
59930;SDS011;45790;51.538;6.736;2023-06-14T02:22:16;6.63;;;3.40;;
59930;SDS011;45790;51.538;6.736;2023-06-14T02:24:41;6.43;;;3.60;;
59930;SDS011;45790;51.538;6.736;2023-06-14T02:27:07;9.30;;;3.15;;
59930;SDS011;45790;51.538;6.736;2023-06-14T02:29:33;8.45;;;3.10;;
59930;SDS011;45790;51.538;6.736;2023-06-14T02:31:58;7.37;;;3.40;;
59930;SDS011;45790;51.538;6.736;2023-06-14T02:34:23;11.40;;;3.27;;
59930;SDS011;45790;51.538;6.736;2023-06-14T02:36:49;4.43;;;3.10;;
59930;SDS011;45790;51.538;6.736;2023-06-14T02:39:14;10.40;;;3.42;;
59930;SDS011;45790;51.538;6.736;2023-06-14T02:41:39;7.15;;;3.10;;
59930;SDS011;45790;51.538;6.736;2023-06-14T02:44:06;7.80;;;3.13;;
59930;SDS011;45790;51.538;6.736;2023-06-14T02:46:31;6.88;;;3.25;;
59930;SDS011;45790;51.538;6.736;2023-06-14T02:48:57;8.25;;;2.95;;
59930;SDS011;45790;51.538;6.736;2023-06-14T02:51:22;5.23;;;3.10;;
59930;SDS011;45790;51.538;6.736;2023-06-14T02:53:47;11.87;;;3.30;;
59930;SDS011;45790;51.538;6.736;2023-06-14T02:56:12;6.80;;;3.10;;
59930;SDS011;45790;51.538;6.736;2023-06-14T02:58:38;5.72;;;3.20;;
59930;SDS011;45790;51.538;6.736;2023-06-14T03:01:05;6.65;;;3.35;;
59930;SDS011;45790;51.538;6.736;2023-06-14T03:03:30;5.55;;;3.35;;
59930;SDS011;45790;51.538;6.736;2023-06-14T03:05:56;5.95;;;3.17;;
59930;SDS011;45790;51.538;6.736;2023-06-14T03:08:21;4.90;;;3.00;;
59930;SDS011;45790;51.538;6.736;2023-06-14T03:10:51;7.20;;;3.10;;
59930;SDS011;45790;51.538;6.736;2023-06-14T03:13:16;7.27;;;3.20;;
59930;SDS011;45790;51.538;6.736;2023-06-14T03:15:42;9.00;;;3.25;;
59930;SDS011;45790;51.538;6.736;2023-06-14T03:18:08;9.35;;;3.35;;
59930;SDS011;45790;51.538;6.736;2023-06-14T03:20:34;7.55;;;3.17;;
59930;SDS011;45790;51.538;6.736;2023-06-14T03:23:00;6.28;;;3.08;;
59930;SDS011;45790;51.538;6.736;2023-06-14T03:25:25;8.18;;;3.20;;
59930;SDS011;45790;51.538;6.736;2023-06-14T03:27:54;5.57;;;3.10;;
59930;SDS011;45790;51.538;6.736;2023-06-14T03:30:19;9.70;;;3.72;;
59930;SDS011;45790;51.538;6.736;2023-06-14T03:32:44;6.90;;;3.15;;
59930;SDS011;45790;51.538;6.736;2023-06-14T03:35:10;6.03;;;2.97;;
59930;SDS011;45790;51.538;6.736;2023-06-14T03:37:41;8.65;;;3.10;;
59930;SDS011;45790;51.538;6.736;2023-06-14T03:40:07;11.40;;;3.30;;
59930;SDS011;45790;51.538;6.736;2023-06-14T03:42:32;6.38;;;3.25;;
59930;SDS011;45790;51.538;6.736;2023-06-14T03:44:57;9.07;;;3.10;;
59930;SDS011;45790;51.538;6.736;2023-06-14T03:47:22;7.83;;;3.60;;
59930;SDS011;45790;51.538;6.736;2023-06-14T03:49:47;9.70;;;3.13;;
59930;SDS011;45790;51.538;6.736;2023-06-14T03:52:13;4.93;;;3.03;;
59930;SDS011;45790;51.538;6.736;2023-06-14T03:54:39;9.52;;;3.00;;
59930;SDS011;45790;51.538;6.736;2023-06-14T03:57:04;5.60;;;2.90;;
59930;SDS011;45790;51.538;6.736;2023-06-14T03:59:31;8.27;;;2.97;;
59930;SDS011;45790;51.538;6.736;2023-06-14T04:01:56;5.17;;;2.90;;
59930;SDS011;45790;51.538;6.736;2023-06-14T04:04:21;7.55;;;3.40;;
59930;SDS011;45790;51.538;6.736;2023-06-14T04:06:46;5.38;;;2.92;;
59930;SDS011;45790;51.538;6.736;2023-06-14T04:09:13;7.72;;;3.17;;
59930;SDS011;45790;51.538;6.736;2023-06-14T04:14:11;5.40;;;2.60;;
59930;SDS011;45790;51.538;6.736;2023-06-14T04:16:36;8.30;;;3.13;;
59930;SDS011;45790;51.538;6.736;2023-06-14T04:19:01;7.68;;;3.13;;
59930;SDS011;45790;51.538;6.736;2023-06-14T04:21:27;7.40;;;2.87;;
59930;SDS011;45790;51.538;6.736;2023-06-14T04:23:53;6.10;;;3.00;;
59930;SDS011;45790;51.538;6.736;2023-06-14T04:26:20;10.80;;;3.45;;
59930;SDS011;45790;51.538;6.736;2023-06-14T04:28:46;8.60;;;2.95;;
59930;SDS011;45790;51.538;6.736;2023-06-14T04:31:12;6.93;;;3.03;;
59930;SDS011;45790;51.538;6.736;2023-06-14T04:33:37;6.40;;;2.80;;
59930;SDS011;45790;51.538;6.736;2023-06-14T04:36:08;8.27;;;2.72;;
59930;SDS011;45790;51.538;6.736;2023-06-14T04:38:33;7.43;;;3.03;;
59930;SDS011;45790;51.538;6.736;2023-06-14T04:40:59;6.57;;;2.63;;
59930;SDS011;45790;51.538;6.736;2023-06-14T04:43:27;5.63;;;2.75;;
59930;SDS011;45790;51.538;6.736;2023-06-14T04:45:52;7.18;;;2.75;;
59930;SDS011;45790;51.538;6.736;2023-06-14T04:48:19;10.43;;;2.83;;
59930;SDS011;45790;51.538;6.736;2023-06-14T04:50:45;7.82;;;3.25;;
59930;SDS011;45790;51.538;6.736;2023-06-14T04:53:10;6.32;;;2.75;;
59930;SDS011;45790;51.538;6.736;2023-06-14T04:55:36;5.95;;;2.47;;
59930;SDS011;45790;51.538;6.736;2023-06-14T04:58:02;8.43;;;2.70;;
59930;SDS011;45790;51.538;6.736;2023-06-14T05:00:27;9.40;;;2.80;;
59930;SDS011;45790;51.538;6.736;2023-06-14T05:05:55;6.00;;;2.60;;
59930;SDS011;45790;51.538;6.736;2023-06-14T05:08:21;4.93;;;2.65;;
59930;SDS011;45790;51.538;6.736;2023-06-14T05:10:48;6.13;;;2.72;;
59930;SDS011;45790;51.538;6.736;2023-06-14T05:13:13;9.07;;;2.97;;
59930;SDS011;45790;51.538;6.736;2023-06-14T05:15:38;8.50;;;2.83;;
59930;SDS011;45790;51.538;6.736;2023-06-14T05:18:03;11.97;;;3.27;;
59930;SDS011;45790;51.538;6.736;2023-06-14T05:20:29;7.20;;;2.80;;
59930;SDS011;45790;51.538;6.736;2023-06-14T05:22:54;7.73;;;2.73;;
59930;SDS011;45790;51.538;6.736;2023-06-14T05:25:19;5.03;;;2.50;;
59930;SDS011;45790;51.538;6.736;2023-06-14T05:27:45;10.95;;;2.85;;
59930;SDS011;45790;51.538;6.736;2023-06-14T05:30:11;10.27;;;3.10;;
59930;SDS011;45790;51.538;6.736;2023-06-14T05:32:36;6.18;;;2.90;;
59930;SDS011;45790;51.538;6.736;2023-06-14T05:35:01;9.10;;;2.53;;
59930;SDS011;45790;51.538;6.736;2023-06-14T05:37:26;6.90;;;2.60;;
59930;SDS011;45790;51.538;6.736;2023-06-14T05:39:51;6.80;;;2.40;;
59930;SDS011;45790;51.538;6.736;2023-06-14T05:42:17;8.33;;;3.10;;
59930;SDS011;45790;51.538;6.736;2023-06-14T05:44:42;12.13;;;2.67;;
59930;SDS011;45790;51.538;6.736;2023-06-14T05:47:07;14.27;;;2.90;;
59930;SDS011;45790;51.538;6.736;2023-06-14T05:49:32;8.80;;;2.40;;
59930;SDS011;45790;51.538;6.736;2023-06-14T05:51:57;7.67;;;2.40;;
59930;SDS011;45790;51.538;6.736;2023-06-14T05:54:23;8.93;;;2.75;;
59930;SDS011;45790;51.538;6.736;2023-06-14T05:56:48;10.83;;;2.70;;
59930;SDS011;45790;51.538;6.736;2023-06-14T05:59:13;10.60;;;2.43;;
59930;SDS011;45790;51.538;6.736;2023-06-14T06:01:38;11.25;;;2.42;;
59930;SDS011;45790;51.538;6.736;2023-06-14T06:04:05;14.88;;;3.10;;
59930;SDS011;45790;51.538;6.736;2023-06-14T06:06:30;7.47;;;2.92;;
59930;SDS011;45790;51.538;6.736;2023-06-14T06:08:55;11.97;;;2.73;;
59930;SDS011;45790;51.538;6.736;2023-06-14T06:11:20;7.05;;;2.65;;
59930;SDS011;45790;51.538;6.736;2023-06-14T06:13:46;5.83;;;2.60;;
59930;SDS011;45790;51.538;6.736;2023-06-14T06:16:11;12.60;;;2.70;;
59930;SDS011;45790;51.538;6.736;2023-06-14T06:21:11;9.30;;;2.80;;
59930;SDS011;45790;51.538;6.736;2023-06-14T06:23:36;8.73;;;2.50;;
59930;SDS011;45790;51.538;6.736;2023-06-14T06:26:01;6.47;;;2.40;;
59930;SDS011;45790;51.538;6.736;2023-06-14T06:28:27;8.00;;;2.33;;
59930;SDS011;45790;51.538;6.736;2023-06-14T06:30:52;4.47;;;2.30;;
59930;SDS011;45790;51.538;6.736;2023-06-14T06:33:18;7.95;;;1.90;;
59930;SDS011;45790;51.538;6.736;2023-06-14T06:35:43;14.00;;;2.40;;
59930;SDS011;45790;51.538;6.736;2023-06-14T06:38:08;5.77;;;2.30;;
59930;SDS011;45790;51.538;6.736;2023-06-14T06:40:35;5.22;;;2.30;;
59930;SDS011;45790;51.538;6.736;2023-06-14T06:43:00;4.78;;;2.20;;
59930;SDS011;45790;51.538;6.736;2023-06-14T06:45:25;10.63;;;2.10;;
59930;SDS011;45790;51.538;6.736;2023-06-14T06:47:50;9.77;;;2.20;;
59930;SDS011;45790;51.538;6.736;2023-06-14T06:50:17;8.75;;;1.80;;
59930;SDS011;45790;51.538;6.736;2023-06-14T06:52:42;12.00;;;2.05;;
59930;SDS011;45790;51.538;6.736;2023-06-14T06:55:07;6.40;;;2.20;;
59930;SDS011;45790;51.538;6.736;2023-06-14T06:57:33;4.45;;;1.65;;
59930;SDS011;45790;51.538;6.736;2023-06-14T06:59:59;13.57;;;1.83;;
59930;SDS011;45790;51.538;6.736;2023-06-14T07:02:24;3.13;;;1.60;;
59930;SDS011;45790;51.538;6.736;2023-06-14T07:04:49;5.37;;;1.90;;
59930;SDS011;45790;51.538;6.736;2023-06-14T07:07:14;5.77;;;1.87;;
59930;SDS011;45790;51.538;6.736;2023-06-14T07:09:39;4.37;;;1.60;;
59930;SDS011;45790;51.538;6.736;2023-06-14T07:12:06;3.70;;;1.70;;
59930;SDS011;45790;51.538;6.736;2023-06-14T07:14:32;5.03;;;1.70;;
59930;SDS011;45790;51.538;6.736;2023-06-14T07:16:58;7.97;;;1.67;;
59930;SDS011;45790;51.538;6.736;2023-06-14T07:19:23;4.97;;;1.67;;
59930;SDS011;45790;51.538;6.736;2023-06-14T07:21:48;6.33;;;1.90;;
59930;SDS011;45790;51.538;6.736;2023-06-14T07:26:58;3.20;;;1.50;;
59930;SDS011;45790;51.538;6.736;2023-06-14T07:29:23;9.50;;;1.63;;
59930;SDS011;45790;51.538;6.736;2023-06-14T07:31:49;3.65;;;1.88;;
59930;SDS011;45790;51.538;6.736;2023-06-14T07:34:14;4.67;;;1.73;;
59930;SDS011;45790;51.538;6.736;2023-06-14T07:36:39;9.18;;;1.80;;
59930;SDS011;45790;51.538;6.736;2023-06-14T07:39:05;5.93;;;1.97;;
59930;SDS011;45790;51.538;6.736;2023-06-14T07:41:31;7.78;;;1.98;;
59930;SDS011;45790;51.538;6.736;2023-06-14T07:43:56;2.67;;;1.75;;
59930;SDS011;45790;51.538;6.736;2023-06-14T07:46:22;6.63;;;1.80;;
59930;SDS011;45790;51.538;6.736;2023-06-14T07:48:47;4.43;;;1.83;;
59930;SDS011;45790;51.538;6.736;2023-06-14T07:51:13;10.00;;;2.00;;
59930;SDS011;45790;51.538;6.736;2023-06-14T07:53:38;5.65;;;2.03;;
59930;SDS011;45790;51.538;6.736;2023-06-14T07:56:03;7.60;;;1.80;;
59930;SDS011;45790;51.538;6.736;2023-06-14T07:58:29;4.93;;;1.70;;
59930;SDS011;45790;51.538;6.736;2023-06-14T08:00:54;4.33;;;1.80;;
59930;SDS011;45790;51.538;6.736;2023-06-14T08:03:19;7.05;;;1.80;;
59930;SDS011;45790;51.538;6.736;2023-06-14T08:05:45;6.33;;;1.87;;
59930;SDS011;45790;51.538;6.736;2023-06-14T08:08:10;5.57;;;2.08;;
59930;SDS011;45790;51.538;6.736;2023-06-14T08:10:35;7.87;;;1.97;;
59930;SDS011;45790;51.538;6.736;2023-06-14T08:13:00;4.10;;;1.90;;
59930;SDS011;45790;51.538;6.736;2023-06-14T08:15:25;6.13;;;2.00;;
59930;SDS011;45790;51.538;6.736;2023-06-14T08:17:50;8.37;;;1.90;;
59930;SDS011;45790;51.538;6.736;2023-06-14T08:20:16;5.07;;;1.80;;
59930;SDS011;45790;51.538;6.736;2023-06-14T08:22:41;5.13;;;1.70;;
59930;SDS011;45790;51.538;6.736;2023-06-14T08:25:07;5.25;;;1.52;;
59930;SDS011;45790;51.538;6.736;2023-06-14T08:27:32;4.50;;;1.65;;
59930;SDS011;45790;51.538;6.736;2023-06-14T08:29:58;9.45;;;1.58;;
59930;SDS011;45790;51.538;6.736;2023-06-14T08:32:23;5.47;;;1.73;;
59930;SDS011;45790;51.538;6.736;2023-06-14T08:34:48;5.67;;;1.60;;
59930;SDS011;45790;51.538;6.736;2023-06-14T08:37:14;4.22;;;1.40;;
59930;SDS011;45790;51.538;6.736;2023-06-14T08:39:39;3.93;;;1.53;;
59930;SDS011;45790;51.538;6.736;2023-06-14T08:42:04;11.45;;;1.70;;
59930;SDS011;45790;51.538;6.736;2023-06-14T08:44:31;3.03;;;1.55;;
59930;SDS011;45790;51.538;6.736;2023-06-14T08:46:56;10.98;;;1.65;;
59930;SDS011;45790;51.538;6.736;2023-06-14T08:49:23;5.95;;;1.50;;
59930;SDS011;45790;51.538;6.736;2023-06-14T08:51:50;4.32;;;1.50;;
59930;SDS011;45790;51.538;6.736;2023-06-14T08:54:18;4.28;;;1.52;;
59930;SDS011;45790;51.538;6.736;2023-06-14T08:56:45;6.38;;;1.80;;
59930;SDS011;45790;51.538;6.736;2023-06-14T08:59:13;7.05;;;1.90;;
59930;SDS011;45790;51.538;6.736;2023-06-14T09:01:38;3.92;;;1.85;;
59930;SDS011;45790;51.538;6.736;2023-06-14T09:04:04;7.55;;;2.13;;
59930;SDS011;45790;51.538;6.736;2023-06-14T09:06:33;4.68;;;2.20;;
59930;SDS011;45790;51.538;6.736;2023-06-14T09:08:58;2.85;;;1.67;;
59930;SDS011;45790;51.538;6.736;2023-06-14T09:11:23;8.68;;;1.60;;
59930;SDS011;45790;51.538;6.736;2023-06-14T09:13:50;6.85;;;1.67;;
59930;SDS011;45790;51.538;6.736;2023-06-14T09:16:16;5.68;;;1.60;;
59930;SDS011;45790;51.538;6.736;2023-06-14T09:18:42;5.85;;;1.70;;
59930;SDS011;45790;51.538;6.736;2023-06-14T09:21:09;3.10;;;1.33;;
59930;SDS011;45790;51.538;6.736;2023-06-14T09:23:37;3.60;;;1.60;;
59930;SDS011;45790;51.538;6.736;2023-06-14T09:26:13;7.38;;;1.63;;
59930;SDS011;45790;51.538;6.736;2023-06-14T09:28:41;5.15;;;1.40;;
59930;SDS011;45790;51.538;6.736;2023-06-14T09:31:07;4.10;;;1.42;;
59930;SDS011;45790;51.538;6.736;2023-06-14T09:33:34;3.63;;;1.40;;
59930;SDS011;45790;51.538;6.736;2023-06-14T09:35:59;3.22;;;1.48;;
59930;SDS011;45790;51.538;6.736;2023-06-14T09:38:25;4.55;;;1.60;;
59930;SDS011;45790;51.538;6.736;2023-06-14T09:40:51;2.28;;;1.17;;
59930;SDS011;45790;51.538;6.736;2023-06-14T09:43:16;3.95;;;1.50;;
59930;SDS011;45790;51.538;6.736;2023-06-14T09:45:43;8.25;;;1.40;;
59930;SDS011;45790;51.538;6.736;2023-06-14T09:48:10;4.28;;;1.38;;
59930;SDS011;45790;51.538;6.736;2023-06-14T09:50:36;7.23;;;1.50;;
59930;SDS011;45790;51.538;6.736;2023-06-14T09:53:03;3.83;;;1.40;;
59930;SDS011;45790;51.538;6.736;2023-06-14T09:55:30;2.78;;;1.27;;
59930;SDS011;45790;51.538;6.736;2023-06-14T09:57:56;7.97;;;5.65;;
59930;SDS011;45790;51.538;6.736;2023-06-14T10:00:21;4.13;;;1.48;;
59930;SDS011;45790;51.538;6.736;2023-06-14T10:02:49;4.43;;;1.80;;
59930;SDS011;45790;51.538;6.736;2023-06-14T10:05:16;2.85;;;1.58;;
59930;SDS011;45790;51.538;6.736;2023-06-14T10:07:44;4.85;;;1.20;;
59930;SDS011;45790;51.538;6.736;2023-06-14T10:10:13;1.90;;;1.08;;
59930;SDS011;45790;51.538;6.736;2023-06-14T10:12:38;3.47;;;1.02;;
59930;SDS011;45790;51.538;6.736;2023-06-14T10:15:03;9.43;;;1.58;;
59930;SDS011;45790;51.538;6.736;2023-06-14T10:23:01;1.58;;;1.00;;
59930;SDS011;45790;51.538;6.736;2023-06-14T10:25:29;3.45;;;0.90;;
59930;SDS011;45790;51.538;6.736;2023-06-14T10:28:14;2.13;;;0.80;;
59930;SDS011;45790;51.538;6.736;2023-06-14T10:30:40;2.33;;;0.90;;
59930;SDS011;45790;51.538;6.736;2023-06-14T10:33:25;7.90;;;0.77;;
59930;SDS011;45790;51.538;6.736;2023-06-14T10:36:05;5.40;;;0.82;;
59930;SDS011;45790;51.538;6.736;2023-06-14T10:38:31;5.85;;;1.00;;
59930;SDS011;45790;51.538;6.736;2023-06-14T10:40:58;10.25;;;1.10;;
59930;SDS011;45790;51.538;6.736;2023-06-14T10:43:23;4.53;;;0.90;;
59930;SDS011;45790;51.538;6.736;2023-06-14T10:46:11;4.03;;;0.80;;
59930;SDS011;45790;51.538;6.736;2023-06-14T10:48:40;1.77;;;1.00;;
59930;SDS011;45790;51.538;6.736;2023-06-14T10:51:05;1.30;;;0.70;;
59930;SDS011;45790;51.538;6.736;2023-06-14T10:53:30;1.73;;;0.77;;
59930;SDS011;45790;51.538;6.736;2023-06-14T10:56:07;3.60;;;1.00;;
59930;SDS011;45790;51.538;6.736;2023-06-14T10:58:33;3.97;;;0.70;;
59930;SDS011;45790;51.538;6.736;2023-06-14T11:00:58;6.70;;;1.00;;
59930;SDS011;45790;51.538;6.736;2023-06-14T11:03:43;2.90;;;0.82;;
59930;SDS011;45790;51.538;6.736;2023-06-14T11:06:15;5.93;;;0.73;;
59930;SDS011;45790;51.538;6.736;2023-06-14T11:11:24;5.82;;;0.82;;
59930;SDS011;45790;51.538;6.736;2023-06-14T11:13:54;5.88;;;0.90;;
59930;SDS011;45790;51.538;6.736;2023-06-14T11:16:20;1.58;;;0.80;;
59930;SDS011;45790;51.538;6.736;2023-06-14T11:18:45;4.17;;;0.90;;
59930;SDS011;45790;51.538;6.736;2023-06-14T11:21:17;2.07;;;0.80;;
59930;SDS011;45790;51.538;6.736;2023-06-14T11:23:52;9.48;;;0.95;;
59930;SDS011;45790;51.538;6.736;2023-06-14T11:28:54;3.25;;;0.85;;
59930;SDS011;45790;51.538;6.736;2023-06-14T11:31:20;4.93;;;1.30;;
59930;SDS011;45790;51.538;6.736;2023-06-14T11:33:48;7.28;;;1.05;;
59930;SDS011;45790;51.538;6.736;2023-06-14T11:36:15;1.60;;;0.75;;
59930;SDS011;45790;51.538;6.736;2023-06-14T11:38:40;2.38;;;1.15;;
59930;SDS011;45790;51.538;6.736;2023-06-14T11:43:33;6.82;;;1.00;;
59930;SDS011;45790;51.538;6.736;2023-06-14T11:45:59;3.72;;;0.70;;
59930;SDS011;45790;51.538;6.736;2023-06-14T11:48:40;2.90;;;1.13;;
59930;SDS011;45790;51.538;6.736;2023-06-14T11:51:06;2.95;;;0.75;;
59930;SDS011;45790;51.538;6.736;2023-06-14T11:53:31;5.30;;;1.10;;
59930;SDS011;45790;51.538;6.736;2023-06-14T11:55:57;2.80;;;1.38;;
59930;SDS011;45790;51.538;6.736;2023-06-14T11:58:22;5.63;;;0.95;;
59930;SDS011;45790;51.538;6.736;2023-06-14T12:00:50;3.60;;;1.00;;
59930;SDS011;45790;51.538;6.736;2023-06-14T12:03:16;2.33;;;0.90;;
59930;SDS011;45790;51.538;6.736;2023-06-14T12:05:42;5.60;;;1.05;;
59930;SDS011;45790;51.538;6.736;2023-06-14T12:08:07;5.03;;;1.07;;
59930;SDS011;45790;51.538;6.736;2023-06-14T12:10:39;6.05;;;1.58;;
59930;SDS011;45790;51.538;6.736;2023-06-14T12:13:05;4.15;;;1.17;;
59930;SDS011;45790;51.538;6.736;2023-06-14T12:15:31;5.90;;;1.08;;
59930;SDS011;45790;51.538;6.736;2023-06-14T12:17:57;1.30;;;1.00;;
59930;SDS011;45790;51.538;6.736;2023-06-14T12:20:22;6.00;;;1.17;;
59930;SDS011;45790;51.538;6.736;2023-06-14T12:22:52;4.80;;;1.00;;
59930;SDS011;45790;51.538;6.736;2023-06-14T12:27:52;2.40;;;1.35;;
59930;SDS011;45790;51.538;6.736;2023-06-14T12:30:17;2.72;;;1.25;;
59930;SDS011;45790;51.538;6.736;2023-06-14T12:32:42;6.23;;;1.17;;
59930;SDS011;45790;51.538;6.736;2023-06-14T12:35:09;2.20;;;0.98;;
59930;SDS011;45790;51.538;6.736;2023-06-14T12:37:34;15.73;;;1.40;;
59930;SDS011;45790;51.538;6.736;2023-06-14T12:39:59;5.07;;;1.10;;
59930;SDS011;45790;51.538;6.736;2023-06-14T12:42:24;5.90;;;1.27;;
59930;SDS011;45790;51.538;6.736;2023-06-14T12:44:50;2.92;;;1.30;;
59930;SDS011;45790;51.538;6.736;2023-06-14T12:47:16;11.35;;;1.45;;
59930;SDS011;45790;51.538;6.736;2023-06-14T12:49:41;3.85;;;1.30;;
59930;SDS011;45790;51.538;6.736;2023-06-14T12:52:07;8.13;;;1.20;;
59930;SDS011;45790;51.538;6.736;2023-06-14T12:54:32;4.75;;;1.15;;
59930;SDS011;45790;51.538;6.736;2023-06-14T12:56:57;3.17;;;1.00;;
59930;SDS011;45790;51.538;6.736;2023-06-14T12:59:22;6.55;;;1.25;;
59930;SDS011;45790;51.538;6.736;2023-06-14T13:01:48;3.50;;;1.00;;
59930;SDS011;45790;51.538;6.736;2023-06-14T13:04:15;4.60;;;1.20;;
59930;SDS011;45790;51.538;6.736;2023-06-14T13:06:40;5.85;;;1.23;;
59930;SDS011;45790;51.538;6.736;2023-06-14T13:09:06;3.38;;;1.23;;
59930;SDS011;45790;51.538;6.736;2023-06-14T13:11:31;3.63;;;1.38;;
59930;SDS011;45790;51.538;6.736;2023-06-14T13:13:56;10.63;;;1.40;;
59930;SDS011;45790;51.538;6.736;2023-06-14T13:16:21;6.57;;;1.40;;
59930;SDS011;45790;51.538;6.736;2023-06-14T13:18:47;5.20;;;1.30;;
59930;SDS011;45790;51.538;6.736;2023-06-14T13:21:12;5.13;;;1.30;;
59930;SDS011;45790;51.538;6.736;2023-06-14T13:23:37;4.13;;;1.33;;
59930;SDS011;45790;51.538;6.736;2023-06-14T13:26:02;11.10;;;1.43;;
59930;SDS011;45790;51.538;6.736;2023-06-14T13:28:27;5.60;;;1.40;;
59930;SDS011;45790;51.538;6.736;2023-06-14T13:30:53;5.95;;;1.20;;
59930;SDS011;45790;51.538;6.736;2023-06-14T13:33:19;2.92;;;1.25;;
59930;SDS011;45790;51.538;6.736;2023-06-14T13:35:44;2.08;;;1.35;;
59930;SDS011;45790;51.538;6.736;2023-06-14T13:38:10;2.53;;;1.40;;
59930;SDS011;45790;51.538;6.736;2023-06-14T13:40:36;9.57;;;1.38;;
59930;SDS011;45790;51.538;6.736;2023-06-14T13:43:01;5.45;;;1.33;;
59930;SDS011;45790;51.538;6.736;2023-06-14T13:45:26;5.10;;;1.50;;
59930;SDS011;45790;51.538;6.736;2023-06-14T13:47:51;2.37;;;1.20;;
59930;SDS011;45790;51.538;6.736;2023-06-14T13:50:17;6.63;;;1.40;;
59930;SDS011;45790;51.538;6.736;2023-06-14T13:52:42;2.77;;;1.20;;
59930;SDS011;45790;51.538;6.736;2023-06-14T13:55:07;5.23;;;1.50;;
59930;SDS011;45790;51.538;6.736;2023-06-14T13:57:33;7.78;;;1.48;;
59930;SDS011;45790;51.538;6.736;2023-06-14T13:59:58;9.23;;;1.33;;
59930;SDS011;45790;51.538;6.736;2023-06-14T14:02:26;4.80;;;1.60;;
59930;SDS011;45790;51.538;6.736;2023-06-14T14:04:51;3.13;;;1.23;;
59930;SDS011;45790;51.538;6.736;2023-06-14T14:07:18;2.08;;;1.10;;
59930;SDS011;45790;51.538;6.736;2023-06-14T14:09:44;3.70;;;1.40;;
59930;SDS011;45790;51.538;6.736;2023-06-14T14:12:09;5.57;;;1.20;;
59930;SDS011;45790;51.538;6.736;2023-06-14T14:14:35;8.50;;;1.30;;
59930;SDS011;45790;51.538;6.736;2023-06-14T14:17:00;2.27;;;1.33;;
59930;SDS011;45790;51.538;6.736;2023-06-14T14:19:25;5.63;;;1.33;;
59930;SDS011;45790;51.538;6.736;2023-06-14T14:21:51;5.00;;;1.50;;
59930;SDS011;45790;51.538;6.736;2023-06-14T14:24:18;4.32;;;1.45;;
59930;SDS011;45790;51.538;6.736;2023-06-14T14:26:43;4.47;;;1.53;;
59930;SDS011;45790;51.538;6.736;2023-06-14T14:29:08;3.53;;;1.23;;
59930;SDS011;45790;51.538;6.736;2023-06-14T14:31:36;8.13;;;1.55;;
59930;SDS011;45790;51.538;6.736;2023-06-14T14:34:01;7.55;;;1.58;;
59930;SDS011;45790;51.538;6.736;2023-06-14T14:36:26;3.40;;;1.47;;
59930;SDS011;45790;51.538;6.736;2023-06-14T14:38:52;2.80;;;1.60;;
59930;SDS011;45790;51.538;6.736;2023-06-14T14:41:17;3.03;;;1.40;;
59930;SDS011;45790;51.538;6.736;2023-06-14T14:43:42;3.97;;;1.52;;
59930;SDS011;45790;51.538;6.736;2023-06-14T14:46:07;3.15;;;1.40;;
59930;SDS011;45790;51.538;6.736;2023-06-14T14:48:33;6.40;;;1.70;;
59930;SDS011;45790;51.538;6.736;2023-06-14T14:50:58;4.60;;;1.60;;
59930;SDS011;45790;51.538;6.736;2023-06-14T14:53:23;4.53;;;1.63;;
59930;SDS011;45790;51.538;6.736;2023-06-14T14:55:48;3.42;;;1.70;;
59930;SDS011;45790;51.538;6.736;2023-06-14T14:58:14;3.70;;;1.75;;
59930;SDS011;45790;51.538;6.736;2023-06-14T15:00:42;6.28;;;1.65;;
59930;SDS011;45790;51.538;6.736;2023-06-14T15:03:08;3.75;;;1.58;;
59930;SDS011;45790;51.538;6.736;2023-06-14T15:05:33;4.40;;;1.60;;